Time;durP1;ratioP1;P1;durP2;ratioP2;P2;SDS_P1;SDS_P2;PMS_P1;PMS_P2;Temp;Humidity;BMP_temperature;BMP_pressure;BME280_temperature;BME280_humidity;BME280_pressure;Samples;Min_cycle;Max_cycle;Signal;HPM_P1;HPM_P2
2024/03/20 00:00:45;;;;;;;;;;;;;;;0.23;94.15;97076.23;110023;1275;23064;-84
2024/03/20 00:03:31;;;;;;;;;;;;;;;0.23;94.04;97072.17;109918;1262;124469;-84
2024/03/20 00:05:57;;;;;;;;;;;;;;;0.23;94.39;97070.83;108934;1280;22578;-84
2024/03/20 00:08:25;;;;;;;;;;;;;;;0.22;94.18;97067.13;108598;1275;124394;-83
2024/03/20 00:10:51;;;;;;;;;;;;;;;0.21;94.48;97066.00;108744;1279;22520;-84
2024/03/20 00:13:17;;;;;;;;;;;;;;;0.20;94.36;97065.60;108710;1280;22529;-84
2024/03/20 00:15:44;;;;;;;;;;;;;;;0.19;94.19;97063.56;108486;1276;124458;-84
2024/03/20 00:18:14;;;;;;;;;;;;;;;0.18;94.31;97059.02;108657;1280;22538;-84
2024/03/20 00:20:40;;;;;;;;;;;;;;;0.18;94.22;97062.09;108593;1275;124494;-84
2024/03/20 00:23:07;;;;;;;;;;;;;;;0.17;94.31;97061.86;108619;1280;23745;-84
2024/03/20 00:25:33;;;;;;;;;;;;;;;0.16;94.34;97062.07;108575;1280;126799;-84
2024/03/20 00:28:00;;;;;;;;;;;;;;;0.15;94.34;97058.57;108720;1280;22550;-84
2024/03/20 00:30:26;;;;;;;;;;;;;;;0.13;94.33;97057.80;108694;1281;23234;-84
2024/03/20 00:32:52;;;;;;;;;;;;;;;0.13;94.36;97060.02;108608;1280;124442;-84
2024/03/20 00:35:18;;;;;;;;;;;;;;;0.12;94.21;97059.60;108716;1276;22659;-84
2024/03/20 00:37:45;;;;;;;;;;;;;;;0.12;94.40;97056.90;108616;1276;124553;-84
2024/03/20 00:40:11;;;;;;;;;;;;;;;0.11;94.16;97054.18;108762;1280;22544;-85
2024/03/20 00:42:39;;;;;;;;;;;;;;;0.11;94.72;97046.01;108749;1272;22979;-84
2024/03/20 00:45:05;;;;;;;;;;;;;;;0.12;95.09;97045.13;108581;1278;124399;-84
2024/03/20 00:47:32;;;;;;;;;;;;;;;0.11;94.92;97044.30;108677;1275;23827;-84
2024/03/20 00:49:58;;;;;;;;;;;;;;;0.09;94.76;97042.39;108616;1273;124659;-84
2024/03/20 00:52:24;;;;;;;;;;;;;;;0.09;94.79;97033.60;108692;1280;22536;-84
2024/03/20 00:54:51;;;;;;;;;;;;;;;0.07;94.78;97029.29;108693;1275;22551;-84
2024/03/20 00:57:17;;;;;;;;;;;;;;;0.07;95.05;97023.36;108629;1280;124586;-84
2024/03/20 00:59:43;;;;;;;;;;;;;;;0.06;95.01;97022.89;108719;1273;22610;-84
2024/03/20 01:02:09;;;;;;;;;;;;;;;0.06;95.57;97026.14;108675;1280;124631;-84
2024/03/20 01:04:36;;;;;;;;;;;;;;;0.06;95.67;97021.38;108775;1280;24239;-86
2024/03/20 01:07:02;;;;;;;;;;;;;;;0.06;95.48;97020.15;108718;1265;22515;-86
2024/03/20 01:09:28;;;;;;;;;;;;;;;0.06;95.39;97020.01;108694;1279;124463;-86
2024/03/20 01:11:55;;;;;;;;;;;;;;;0.06;95.41;97014.06;108743;1279;22473;-86
2024/03/20 01:14:22;;;;;;;;;;;;;;;0.05;95.60;97015.27;108524;1275;124398;-86
2024/03/20 01:16:49;;;;;;;;;;;;;;;0.06;95.45;97014.73;108702;1279;22644;-85
2024/03/20 01:19:15;;;;;;;;;;;;;;;0.06;95.63;97013.69;108742;1273;22885;-86
2024/03/20 01:21:42;;;;;;;;;;;;;;;0.05;95.47;97015.43;108612;1275;124431;-86
2024/03/20 01:24:08;;;;;;;;;;;;;;;0.04;95.43;97012.80;108675;1275;22518;-84
2024/03/20 01:26:34;;;;;;;;;;;;;;;0.04;95.52;97011.98;108606;1280;124987;-84
2024/03/20 01:29:01;;;;;;;;;;;;;;;0.03;95.53;97012.67;108752;1280;24226;-84
2024/03/20 01:31:27;;;;;;;;;;;;;;;0.03;95.52;97010.50;108665;1280;23627;-84
2024/03/20 01:33:53;;;;;;;;;;;;;;;0.02;95.63;97011.59;108563;1280;124244;-84
2024/03/20 01:36:19;;;;;;;;;;;;;;;0.01;95.65;97014.19;108700;1280;22543;-84
2024/03/20 01:38:46;;;;;;;;;;;;;;;0.01;95.31;97014.36;108648;1280;124486;-84
2024/03/20 01:41:12;;;;;;;;;;;;;;;-0.00;95.12;97007.77;108677;1279;23319;-84
2024/03/20 01:43:38;;;;;;;;;;;;;;;-0.01;95.21;97004.55;108648;1272;124731;-84
2024/03/20 01:46:08;;;;;;;;;;;;;;;-0.02;95.16;97003.95;108815;1279;22864;-84
2024/03/20 01:48:34;;;;;;;;;;;;;;;-0.03;95.26;97005.03;108778;1279;22716;-84
2024/03/20 01:51:01;;;;;;;;;;;;;;;-0.03;95.57;97003.52;108627;1275;124611;-84
2024/03/20 01:53:27;;;;;;;;;;;;;;;-0.03;95.73;97002.33;108766;1272;23576;-84
2024/03/20 01:55:53;;;;;;;;;;;;;;;-0.03;95.91;97000.27;108658;1280;124692;-84
2024/03/20 01:58:19;;;;;;;;;;;;;;;-0.02;96.08;97002.75;108738;1274;24197;-84
2024/03/20 02:00:46;;;;;;;;;;;;;;;-0.02;96.23;96999.67;108735;1274;22564;-84
2024/03/20 02:03:15;;;;;;;;;;;;;;;-0.02;96.24;96996.63;108598;1280;124657;-84
2024/03/20 02:05:42;;;;;;;;;;;;;;;-0.04;96.55;96999.52;108683;1275;23789;-84
2024/03/20 02:08:08;;;;;;;;;;;;;;;-0.06;96.59;96997.26;108556;1275;124898;-84
2024/03/20 02:10:35;;;;;;;;;;;;;;;-0.08;96.47;96988.38;108690;1271;22533;-84
2024/03/20 02:13:04;;;;;;;;;;;;;;;-0.08;96.65;96988.89;108676;1280;22515;-84
2024/03/20 02:15:32;;;;;;;;;;;;;;;-0.07;96.44;96988.96;108530;1280;124805;-84
2024/03/20 02:17:59;;;;;;;;;;;;;;;-0.08;96.30;96985.97;108777;1275;22504;-84
2024/03/20 02:20:25;;;;;;;;;;;;;;;-0.08;96.35;96981.88;108616;1262;124578;-84
2024/03/20 02:22:52;;;;;;;;;;;;;;;-0.07;96.70;96981.30;108688;1280;22607;-84
2024/03/20 02:25:19;;;;;;;;;;;;;;;-0.07;96.41;96981.80;108630;1273;22697;-84
2024/03/20 02:27:46;;;;;;;;;;;;;;;-0.06;96.73;96981.05;108718;1272;124552;-83
2024/03/20 02:30:13;;;;;;;;;;;;;;;-0.04;96.92;96982.27;108722;1279;22496;-84
2024/03/20 02:32:39;;;;;;;;;;;;;;;-0.02;96.83;96984.89;108702;1279;124691;-84
2024/03/20 02:35:06;;;;;;;;;;;;;;;-0.02;96.52;96985.57;108737;1269;22671;-84
2024/03/20 02:37:32;;;;;;;;;;;;;;;-0.01;96.11;96991.98;108626;1279;124757;-84
2024/03/20 02:39:59;;;;;;;;;;;;;;;-0.01;96.23;96988.25;108677;1274;22460;-84
2024/03/20 02:42:25;;;;;;;;;;;;;;;-0.01;96.31;96989.09;108738;1275;22505;-84
2024/03/20 02:44:51;;;;;;;;;;;;;;;-0.02;96.60;96991.02;108551;1280;124694;-84
2024/03/20 02:47:18;;;;;;;;;;;;;;;-0.03;96.35;96993.64;108638;1281;22535;-84
2024/03/20 02:49:46;;;;;;;;;;;;;;;-0.04;96.67;96992.98;108592;1273;124826;-84
2024/03/20 02:52:12;;;;;;;;;;;;;;;-0.03;96.57;96991.25;108750;1280;23328;-84
2024/03/20 02:54:39;;;;;;;;;;;;;;;-0.03;96.53;96993.25;108799;1276;23691;-84
2024/03/20 02:57:05;;;;;;;;;;;;;;;-0.02;96.91;96995.10;108626;1280;124573;-85
2024/03/20 02:59:31;;;;;;;;;;;;;;;-0.03;96.84;96996.17;108719;1280;22506;-84
2024/03/20 03:01:57;;;;;;;;;;;;;;;-0.04;96.64;97002.19;108692;1280;125057;-84
2024/03/20 03:04:24;;;;;;;;;;;;;;;-0.02;97.00;97005.14;108787;1280;25374;-84
2024/03/20 03:06:50;;;;;;;;;;;;;;;-0.02;97.05;97007.01;108571;1281;25185;-84
2024/03/20 03:09:19;;;;;;;;;;;;;;;-0.06;96.72;97002.67;108588;1275;124678;-84
2024/03/20 03:11:46;;;;;;;;;;;;;;;-0.08;96.63;97007.80;108597;1280;22570;-84
2024/03/20 03:14:16;;;;;;;;;;;;;;;-0.10;96.54;97006.85;108493;1259;125709;-84
2024/03/20 03:16:42;;;;;;;;;;;;;;;-0.10;96.63;97008.04;108627;1275;22551;-84
2024/03/20 03:19:09;;;;;;;;;;;;;;;-0.10;96.44;97011.14;108700;1280;23038;-84
2024/03/20 03:21:36;;;;;;;;;;;;;;;-0.10;96.23;97011.96;108508;1275;126013;-84
2024/03/20 03:24:06;;;;;;;;;;;;;;;-0.10;96.41;97015.88;108575;1277;22512;-84
2024/03/20 03:26:33;;;;;;;;;;;;;;;-0.09;96.22;97010.91;108554;1275;125571;-84
2024/03/20 03:29:00;;;;;;;;;;;;;;;-0.09;96.13;97011.08;108650;1275;22479;-86
2024/03/20 03:31:26;;;;;;;;;;;;;;;-0.10;96.24;97013.00;108682;1273;22474;-86
2024/03/20 03:33:53;;;;;;;;;;;;;;;-0.11;95.80;97014.08;108624;1280;125813;-86
2024/03/20 03:36:19;;;;;;;;;;;;;;;-0.10;95.69;97016.62;108576;1278;23192;-86
2024/03/20 03:38:45;;;;;;;;;;;;;;;-0.11;95.68;97017.89;108563;1275;124660;-86
2024/03/20 03:41:11;;;;;;;;;;;;;;;-0.12;95.62;97016.91;108619;1275;22518;-86
2024/03/20 03:43:38;;;;;;;;;;;;;;;-0.14;95.30;97016.17;108581;1278;125560;-84
2024/03/20 03:46:05;;;;;;;;;;;;;;;-0.14;95.68;97013.82;108699;1280;22499;-84
2024/03/20 03:48:31;;;;;;;;;;;;;;;-0.17;95.58;97012.95;108639;1275;23249;-84
2024/03/20 03:50:58;;;;;;;;;;;;;;;-0.17;96.06;97005.63;108475;1281;125231;-84
2024/03/20 03:53:24;;;;;;;;;;;;;;;-0.14;95.85;97005.30;108677;1280;22557;-84
2024/03/20 03:55:50;;;;;;;;;;;;;;;-0.15;95.47;97004.66;108577;1280;125343;-84
2024/03/20 03:58:17;;;;;;;;;;;;;;;-0.15;95.56;97005.67;108669;1280;22499;-84
2024/03/20 04:00:43;;;;;;;;;;;;;;;-0.16;95.83;97004.05;108581;1281;22513;-84
2024/03/20 04:03:09;;;;;;;;;;;;;;;-0.20;95.45;97000.39;108595;1275;124736;-84
2024/03/20 04:05:35;;;;;;;;;;;;;;;-0.22;95.74;96997.84;108745;1273;22532;-84
2024/03/20 04:08:02;;;;;;;;;;;;;;;-0.24;95.58;96997.73;108644;1260;126050;-84
2024/03/20 04:10:28;;;;;;;;;;;;;;;-0.24;95.85;96993.70;108794;1279;22431;-84
2024/03/20 04:12:54;;;;;;;;;;;;;;;-0.24;96.27;96990.95;108785;1279;25373;-84
2024/03/20 04:15:20;;;;;;;;;;;;;;;-0.24;96.66;96994.02;108585;1273;125570;-84
2024/03/20 04:17:46;;;;;;;;;;;;;;;-0.25;96.23;96995.77;108691;1280;22604;-84
2024/03/20 04:20:13;;;;;;;;;;;;;;;-0.26;96.38;96997.04;108537;1280;125066;-84
2024/03/20 04:22:39;;;;;;;;;;;;;;;-0.26;96.26;96995.67;108621;1275;22552;-84
2024/03/20 04:25:06;;;;;;;;;;;;;;;-0.24;96.69;96999.27;108605;1275;22625;-84
2024/03/20 04:27:35;;;;;;;;;;;;;;;-0.22;96.79;97000.69;108619;1280;124686;-84
2024/03/20 04:30:02;;;;;;;;;;;;;;;-0.22;96.94;97006.66;108713;1273;23215;-84
2024/03/20 04:32:29;;;;;;;;;;;;;;;-0.22;96.41;97011.58;108546;1280;124632;-84
2024/03/20 04:34:55;;;;;;;;;;;;;;;-0.22;96.58;97007.85;108641;1275;23275;-84
2024/03/20 04:37:21;;;;;;;;;;;;;;;-0.23;96.40;97007.93;108588;1275;22511;-84
2024/03/20 04:39:48;;;;;;;;;;;;;;;-0.25;95.95;97005.20;108588;1259;124484;-84
2024/03/20 04:42:14;;;;;;;;;;;;;;;-0.27;95.92;97006.84;108767;1276;23823;-84
2024/03/20 04:44:40;;;;;;;;;;;;;;;-0.29;96.16;97006.63;108610;1278;124932;-85
2024/03/20 04:47:07;;;;;;;;;;;;;;;-0.31;96.36;97008.46;108765;1280;22704;-84
2024/03/20 04:49:33;;;;;;;;;;;;;;;-0.33;96.40;97011.47;108694;1272;125904;-84
2024/03/20 04:51:59;;;;;;;;;;;;;;;-0.35;96.26;97008.67;108768;1272;22539;-84
2024/03/20 04:54:26;;;;;;;;;;;;;;;-0.38;96.18;97009.71;108682;1280;22957;-84
2024/03/20 04:56:52;;;;;;;;;;;;;;;-0.39;96.18;97008.23;108560;1275;125438;-84
2024/03/20 04:59:18;;;;;;;;;;;;;;;-0.39;96.44;97010.65;108619;1280;25252;-84
2024/03/20 05:01:45;;;;;;;;;;;;;;;-0.40;96.57;97006.29;108498;1278;124812;-84
2024/03/20 05:04:11;;;;;;;;;;;;;;;-0.40;96.28;97002.90;108764;1280;24903;-84
2024/03/20 05:06:38;;;;;;;;;;;;;;;-0.41;96.26;97005.52;108711;1280;22688;-84
2024/03/20 05:09:04;;;;;;;;;;;;;;;-0.41;96.72;97007.20;108590;1280;125327;-84
2024/03/20 05:11:31;;;;;;;;;;;;;;;-0.40;96.95;97002.24;108633;1280;22733;-84
2024/03/20 05:13:57;;;;;;;;;;;;;;;-0.40;96.36;97010.06;108532;1263;126226;-85
2024/03/20 05:16:24;;;;;;;;;;;;;;;-0.39;96.10;97011.35;108625;1275;22502;-84
2024/03/20 05:18:50;;;;;;;;;;;;;;;-0.39;96.25;97010.11;108641;1280;22532;-84
2024/03/20 05:21:16;;;;;;;;;;;;;;;-0.38;96.08;97010.05;108584;1275;125294;-84
2024/03/20 05:23:43;;;;;;;;;;;;;;;-0.37;95.72;97014.95;108678;1263;22571;-84
2024/03/20 05:26:09;;;;;;;;;;;;;;;-0.35;95.73;97013.95;108569;1262;125458;-84
2024/03/20 05:28:35;;;;;;;;;;;;;;;-0.33;95.83;97016.05;108688;1275;23336;-84
2024/03/20 05:31:02;;;;;;;;;;;;;;;-0.32;96.42;97011.04;108690;1276;22704;-84
2024/03/20 05:33:28;;;;;;;;;;;;;;;-0.31;96.29;97011.14;108584;1280;125572;-84
2024/03/20 05:35:54;;;;;;;;;;;;;;;-0.29;96.34;97016.98;108719;1280;23152;-84
2024/03/20 05:38:21;;;;;;;;;;;;;;;-0.26;96.72;97018.67;108544;1280;124708;-83
2024/03/20 05:40:47;;;;;;;;;;;;;;;-0.25;96.41;97021.64;108656;1281;22586;-83
2024/03/20 05:43:15;;;;;;;;;;;;;;;-0.21;96.63;97023.11;108687;1280;25231;-82
2024/03/20 05:45:42;;;;;;;;;;;;;;;-0.20;96.38;97022.17;108622;1280;125222;-83
2024/03/20 05:48:08;;;;;;;;;;;;;;;-0.19;96.49;97020.08;108615;1280;22509;-86
2024/03/20 05:50:35;;;;;;;;;;;;;;;-0.17;96.81;97021.84;108612;1280;124691;-87
2024/03/20 05:53:01;;;;;;;;;;;;;;;-0.16;96.85;97025.02;108628;1262;22493;-86
2024/03/20 05:55:27;;;;;;;;;;;;;;;-0.15;96.43;97024.45;108722;1280;25244;-87
2024/03/20 05:57:54;;;;;;;;;;;;;;;-0.14;96.32;97023.35;108620;1280;124957;-86
2024/03/20 06:00:21;;;;;;;;;;;;;;;-0.12;96.35;97024.25;108628;1280;25058;-86
2024/03/20 06:02:48;;;;;;;;;;;;;;;-0.11;96.10;97023.67;108582;1280;124656;-87
2024/03/20 06:05:16;;;;;;;;;;;;;;;-0.10;96.36;97021.52;108773;1280;24197;-86
2024/03/20 06:07:43;;;;;;;;;;;;;;;-0.06;96.99;97022.64;108592;1279;124780;-86
2024/03/20 06:10:09;;;;;;;;;;;;;;;-0.03;97.11;97023.98;108769;1272;23517;-86
2024/03/20 06:12:36;;;;;;;;;;;;;;;-0.01;97.30;97030.09;108803;1280;22675;-86
2024/03/20 06:15:03;;;;;;;;;;;;;;;0.03;97.55;97027.19;108535;1280;125326;-86
2024/03/20 06:17:29;;;;;;;;;;;;;;;0.07;97.62;97033.74;108717;1262;22496;-87
2024/03/20 06:19:56;;;;;;;;;;;;;;;0.11;97.64;97033.45;108665;1273;125625;-86
2024/03/20 06:22:25;;;;;;;;;;;;;;;0.16;97.77;97035.70;108688;1275;22600;-87
2024/03/20 06:24:52;;;;;;;;;;;;;;;0.19;97.77;97040.41;108723;1272;23748;-86
2024/03/20 06:27:19;;;;;;;;;;;;;;;0.25;97.84;97043.77;108616;1275;124921;-86
2024/03/20 06:29:46;;;;;;;;;;;;;;;0.31;97.91;97043.54;108710;1280;22480;-86
2024/03/20 06:32:12;;;;;;;;;;;;;;;0.35;98.43;97040.02;108605;1280;124586;-86
2024/03/20 06:34:39;;;;;;;;;;;;;;;0.39;98.25;97039.08;108681;1275;22519;-83
2024/03/20 06:37:07;;;;;;;;;;;;;;;0.42;98.26;97036.80;108668;1257;22528;-83
2024/03/20 06:39:33;;;;;;;;;;;;;;;0.44;98.55;97034.11;108601;1275;124393;-85
2024/03/20 06:41:59;;;;;;;;;;;;;;;0.47;99.14;97036.48;108701;1280;23170;-84
2024/03/20 06:44:25;;;;;;;;;;;;;;;0.50;99.30;97038.64;108496;1275;124445;-84
2024/03/20 06:46:52;;;;;;;;;;;;;;;0.55;98.63;97041.23;108762;1280;24191;-84
2024/03/20 06:49:22;;;;;;;;;;;;;;;0.61;97.92;97043.73;108711;1269;22915;-84
2024/03/20 06:51:50;;;;;;;;;;;;;;;0.66;97.25;97048.14;108521;1278;125113;-84
2024/03/20 06:54:16;;;;;;;;;;;;;;;0.73;97.07;97052.30;108795;1272;22563;-84
2024/03/20 06:56:47;;;;;;;;;;;;;;;0.79;96.81;97052.71;108573;1278;124415;-84
2024/03/20 06:59:14;;;;;;;;;;;;;;;0.85;96.85;97046.86;108647;1262;22511;-84
2024/03/20 07:01:41;;;;;;;;;;;;;;;0.90;96.81;97051.23;108570;1279;125121;-84
2024/03/20 07:04:07;;;;;;;;;;;;;;;0.97;96.84;97051.96;108789;1280;23757;-84
2024/03/20 07:06:33;;;;;;;;;;;;;;;1.03;96.57;97051.71;108720;1275;22471;-84
2024/03/20 07:08:59;;;;;;;;;;;;;;;1.09;96.40;97052.48;108543;1275;124827;-83
2024/03/20 07:11:26;;;;;;;;;;;;;;;1.15;96.65;97051.04;108605;1278;22511;-84
2024/03/20 07:13:54;;;;;;;;;;;;;;;1.23;96.98;97054.45;108563;1278;125313;-84
2024/03/20 07:16:20;;;;;;;;;;;;;;;1.31;97.48;97054.89;108734;1275;22532;-83
2024/03/20 07:18:46;;;;;;;;;;;;;;;1.38;96.79;97060.38;108681;1276;22505;-84
2024/03/20 07:21:13;;;;;;;;;;;;;;;1.44;96.60;97059.08;108634;1280;124781;-84
2024/03/20 07:23:40;;;;;;;;;;;;;;;1.52;97.03;97056.69;108789;1276;22787;-84
2024/03/20 07:26:07;;;;;;;;;;;;;;;1.60;96.95;97054.38;108604;1280;124763;-83
2024/03/20 07:28:34;;;;;;;;;;;;;;;1.67;96.19;97057.48;108703;1278;22473;-84
2024/03/20 07:31:00;;;;;;;;;;;;;;;1.74;96.08;97060.70;108638;1271;22559;-84
2024/03/20 07:33:26;;;;;;;;;;;;;;;1.81;95.89;97060.69;108549;1279;125159;-83
2024/03/20 07:35:53;;;;;;;;;;;;;;;1.91;96.32;97057.09;108704;1278;22465;-86
2024/03/20 07:38:19;;;;;;;;;;;;;;;1.99;96.28;97060.25;108633;1280;124523;-87
2024/03/20 07:40:50;;;;;;;;;;;;;;;2.06;96.23;97065.02;108641;1280;23875;-87
2024/03/20 07:43:17;;;;;;;;;;;;;;;2.14;96.24;97064.94;108787;1280;22494;-84
2024/03/20 07:45:43;;;;;;;;;;;;;;;2.23;96.02;97058.79;108665;1279;125143;-84
2024/03/20 07:48:09;;;;;;;;;;;;;;;2.33;95.94;97052.92;108811;1280;22616;-83
2024/03/20 07:50:35;;;;;;;;;;;;;;;2.47;95.75;97051.56;108564;1278;125130;-84
2024/03/20 07:53:02;;;;;;;;;;;;;;;2.61;95.43;97060.20;108773;1280;22631;-84
2024/03/20 07:55:28;;;;;;;;;;;;;;;2.73;95.80;97061.04;108623;1275;22602;-84
2024/03/20 07:57:56;;;;;;;;;;;;;;;2.83;95.83;97059.91;108788;1280;22442;-84
2024/03/20 08:00:28;;;;;;;;;;;;;;;2.95;95.19;97060.90;108657;1280;23337;-84
2024/03/20 08:02:55;;;;;;;;;;;;;;;3.05;94.90;97063.38;108551;1274;124804;-84
2024/03/20 08:05:28;;;;;;;;;;;;;;;3.13;95.06;97064.27;108599;1281;22504;-83
2024/03/20 08:07:54;;;;;;;;;;;;;;;3.21;95.28;97066.55;108549;1274;125130;-84
2024/03/20 08:10:21;;;;;;;;;;;;;;;3.30;94.48;97061.80;108608;1278;22507;-84
2024/03/20 08:12:47;;;;;;;;;;;;;;;3.40;94.97;97066.29;108605;1278;22534;-83
2024/03/20 08:15:13;;;;;;;;;;;;;;;3.49;93.13;97068.98;108551;1280;124433;-84
2024/03/20 08:17:39;;;;;;;;;;;;;;;3.58;92.47;97065.71;108643;1281;22510;-83
2024/03/20 08:20:09;;;;;;;;;;;;;;;3.68;91.86;97065.63;108507;1264;124541;-84
2024/03/20 08:22:36;;;;;;;;;;;;;;;3.77;91.61;97068.17;108641;1280;24805;-84
2024/03/20 08:25:02;;;;;;;;;;;;;;;3.84;90.23;97069.15;108708;1280;24267;-84
2024/03/20 08:27:29;;;;;;;;;;;;;;;3.92;90.19;97066.38;108694;1273;124566;-84
2024/03/20 08:29:58;;;;;;;;;;;;;;;4.03;90.61;97061.75;108755;1272;23964;-84
2024/03/20 08:32:24;;;;;;;;;;;;;;;4.15;90.17;97061.08;108678;1280;124491;-84
2024/03/20 08:34:50;;;;;;;;;;;;;;;4.26;89.26;97060.40;108814;1278;22640;-84
2024/03/20 08:37:17;;;;;;;;;;;;;;;4.33;87.68;97055.70;108808;1280;22447;-84
2024/03/20 08:39:43;;;;;;;;;;;;;;;4.39;86.89;97054.83;108656;1280;124392;-84
2024/03/20 08:42:09;;;;;;;;;;;;;;;4.45;87.12;97053.11;108716;1267;22517;-84
2024/03/20 08:44:35;;;;;;;;;;;;;;;4.55;86.51;97046.83;108537;1280;125591;-84
2024/03/20 08:47:01;;;;;;;;;;;;;;;4.65;85.30;97045.56;108715;1280;22524;-83
2024/03/20 08:49:37;;;;;;;;;;;;;;;4.76;85.80;97042.97;108583;1280;22557;-83
2024/03/20 08:52:03;;;;;;;;;;;;;;;4.85;84.06;97037.95;108684;1262;25377;-83
2024/03/20 08:54:30;;;;;;;;;;;;;;;4.92;84.48;97033.89;108663;1277;22604;-85
2024/03/20 08:56:56;;;;;;;;;;;;;;;4.97;83.56;97030.54;108523;1262;124796;-84
2024/03/20 08:59:23;;;;;;;;;;;;;;;5.02;83.58;97030.30;108630;1264;22505;-84
2024/03/20 09:01:49;;;;;;;;;;;;;;;5.07;83.59;97024.19;108549;1277;124591;-84
2024/03/20 09:04:15;;;;;;;;;;;;;;;5.12;81.43;97029.93;108591;1275;22543;-84
2024/03/20 09:06:41;;;;;;;;;;;;;;;5.24;80.30;97029.23;108693;1278;22516;-84
2024/03/20 09:09:08;;;;;;;;;;;;;;;5.35;80.58;97031.22;108505;1278;124631;-83
2024/03/20 09:11:34;;;;;;;;;;;;;;;5.41;80.56;97032.58;108570;1279;24219;-83
2024/03/20 09:14:01;;;;;;;;;;;;;;;5.46;81.03;97032.52;108585;1271;124979;-84
2024/03/20 09:16:28;;;;;;;;;;;;;;;5.53;80.80;97035.48;108792;1275;22547;-84
2024/03/20 09:18:54;;;;;;;;;;;;;;;5.63;79.53;97037.72;108732;1278;23302;-84
2024/03/20 09:21:20;;;;;;;;;;;;;;;5.73;79.07;97040.28;108629;1277;124439;-84
2024/03/20 09:23:46;;;;;;;;;;;;;;;5.83;81.02;97037.98;108658;1280;23619;-84
2024/03/20 09:26:13;;;;;;;;;;;;;;;5.91;80.58;97041.73;108900;1280;124620;-85
2024/03/20 09:28:39;;;;;;;;;;;;;;;5.95;80.04;97043.94;110059;1277;22408;-85
2024/03/20 09:31:06;;;;;;;;;;;;;;;5.98;79.18;97037.67;110154;1279;22376;-85
2024/03/20 09:33:32;;;;;;;;;;;;;;;6.05;78.08;97036.59;109951;1275;124339;-83
2024/03/20 09:35:58;;;;;;;;;;;;;;;6.11;77.72;97037.00;110065;1272;22391;-83
2024/03/20 09:38:25;;;;;;;;;;;;;;;6.20;77.62;97033.80;109935;1280;124605;-82
2024/03/20 09:40:51;;;;;;;;;;;;;;;6.28;77.31;97029.97;109894;1274;208244;-83
2024/03/20 09:43:18;;;;;;;;;;;;;;;6.35;78.31;97035.90;109992;1262;22428;-86
2024/03/20 09:45:45;;;;;;;;;;;;;;;6.46;77.84;97034.73;109370;1275;124947;-86
2024/03/20 09:48:12;;;;;;;;;;;;;;;6.56;77.74;97036.41;108775;1276;24295;-87
2024/03/20 09:50:38;;;;;;;;;;;;;;;6.62;75.82;97034.97;108599;1278;125017;-86
2024/03/20 09:53:05;;;;;;;;;;;;;;;6.67;76.76;97034.39;108593;1279;22507;-87
2024/03/20 09:55:31;;;;;;;;;;;;;;;6.73;76.96;97031.86;108711;1280;23821;-83
2024/03/20 09:57:58;;;;;;;;;;;;;;;6.83;78.19;97025.31;108542;1280;124445;-83
2024/03/20 10:00:25;;;;;;;;;;;;;;;6.90;76.07;97025.00;108705;1272;22512;-83
2024/03/20 10:02:53;;;;;;;;;;;;;;;6.92;74.30;97025.60;108497;1280;124875;-84
2024/03/20 10:05:20;;;;;;;;;;;;;;;6.97;74.13;97025.90;108643;1271;22448;-84
2024/03/20 10:07:51;;;;;;;;;;;;;;;7.04;75.73;97023.33;108512;1273;124417;-84
2024/03/20 10:10:17;;;;;;;;;;;;;;;7.10;71.95;97020.48;108649;1280;22695;-84
2024/03/20 10:12:47;;;;;;;;;;;;;;;7.10;73.50;97014.98;108656;1280;22514;-84
2024/03/20 10:15:14;;;;;;;;;;;;;;;7.14;74.59;97014.61;108505;1278;124093;-84
2024/03/20 10:17:43;;;;;;;;;;;;;;;7.19;74.41;97012.08;108592;1275;24007;-84
2024/03/20 10:20:22;;;;;;;;;;;;;;;7.27;75.79;97007.87;108596;1280;124256;-84
2024/03/20 10:22:49;;;;;;;;;;;;;;;7.42;76.05;97004.05;108599;1280;22659;-84
2024/03/20 10:25:16;;;;;;;;;;;;;;;7.50;74.64;97002.75;108690;1280;23654;-84
2024/03/20 10:27:44;;;;;;;;;;;;;;;7.56;73.77;96998.21;108566;1280;124422;-84
2024/03/20 10:30:14;;;;;;;;;;;;;;;7.60;74.77;96998.69;109962;1271;22375;-84
2024/03/20 10:32:43;;;;;;;;;;;;;;;7.66;74.79;97000.66;108853;1280;124294;-84
2024/03/20 10:35:09;;;;;;;;;;;;;;;7.70;74.03;96999.34;108611;1280;23627;-84
2024/03/20 10:37:37;;;;;;;;;;;;;;;7.77;73.33;96998.89;108512;1281;124394;-85
2024/03/20 10:40:04;;;;;;;;;;;;;;;7.81;73.23;96998.52;108606;1280;22531;-84
2024/03/20 10:42:31;;;;;;;;;;;;;;;7.81;74.38;96996.56;108635;1280;24291;-84
2024/03/20 10:44:57;;;;;;;;;;;;;;;7.88;75.17;96994.77;108533;1280;123681;-84
2024/03/20 10:47:24;;;;;;;;;;;;;;;7.93;73.67;96996.86;108718;1280;24206;-84
2024/03/20 10:49:51;;;;;;;;;;;;;;;7.93;71.62;96999.26;108556;1280;126026;-87
2024/03/20 10:52:17;;;;;;;;;;;;;;;7.93;72.63;96992.66;108628;1276;24806;-87
2024/03/20 10:54:44;;;;;;;;;;;;;;;7.97;72.79;96991.24;108610;1278;22528;-87
2024/03/20 10:57:10;;;;;;;;;;;;;;;8.00;73.42;96987.33;108557;1278;124380;-87
2024/03/20 10:59:37;;;;;;;;;;;;;;;8.04;73.70;96985.02;108709;1280;22501;-87
2024/03/20 11:02:07;;;;;;;;;;;;;;;8.09;72.30;96984.53;108576;1275;126606;-87
2024/03/20 11:04:41;;;;;;;;;;;;;;;8.13;71.31;96986.73;108694;1273;23258;-87
2024/03/20 11:07:29;;;;;;;;;;;;;;;8.14;71.83;96984.55;108749;1277;23176;-87
2024/03/20 11:09:55;;;;;;;;;;;;;;;8.20;71.10;96982.05;108606;1278;123750;-87
2024/03/20 11:12:25;;;;;;;;;;;;;;;8.27;70.24;96985.10;108706;1276;22457;-87
2024/03/20 11:14:51;;;;;;;;;;;;;;;8.24;70.04;96982.37;108641;1280;123861;-88
2024/03/20 11:17:18;;;;;;;;;;;;;;;8.22;69.22;96983.39;108746;1278;22657;-87
2024/03/20 11:19:44;;;;;;;;;;;;;;;8.22;69.54;96976.53;108545;1280;123967;-87
2024/03/20 11:22:20;;;;;;;;;;;;;;;8.30;71.48;96975.93;108664;1280;22540;-87
2024/03/20 11:24:46;;;;;;;;;;;;;;;8.37;70.36;96970.92;108628;1280;22458;-87
2024/03/20 11:27:13;;;;;;;;;;;;;;;8.39;69.24;96969.84;109439;1273;123704;-88
2024/03/20 11:29:40;;;;;;;;;;;;;;;8.44;70.69;96966.42;110003;1280;23143;-87
2024/03/20 11:32:13;;;;;;;;;;;;;;;8.49;70.51;96965.36;109937;1280;123886;-87
2024/03/20 11:34:42;;;;;;;;;;;;;;;8.55;70.14;96960.80;109938;1278;22575;-87
2024/03/20 11:37:16;;;;;;;;;;;;;;;8.63;69.45;96961.84;110001;1276;22428;-88
2024/03/20 11:39:43;;;;;;;;;;;;;;;8.70;70.63;96957.69;109949;1278;123806;-88
2024/03/20 11:42:15;;;;;;;;;;;;;;;8.74;70.26;96957.86;109506;1278;24398;-87
2024/03/20 11:44:42;;;;;;;;;;;;;;;8.75;69.13;96956.89;108609;1281;123797;-87
2024/03/20 11:47:10;;;;;;;;;;;;;;;8.78;70.05;96956.39;108613;1281;22629;-87
2024/03/20 11:49:44;;;;;;;;;;;;;;;8.83;69.75;96954.80;108623;1280;124154;-87
2024/03/20 11:52:11;;;;;;;;;;;;;;;8.83;68.42;96949.63;108684;1280;22697;-88
2024/03/20 11:54:38;;;;;;;;;;;;;;;8.85;68.46;96950.27;108612;1278;22510;-88
2024/03/20 11:57:04;;;;;;;;;;;;;;;8.88;67.25;96948.58;108569;1280;124246;-84
2024/03/20 11:59:31;;;;;;;;;;;;;;;8.91;67.86;96948.48;108585;1280;24418;-84
2024/03/20 12:01:57;;;;;;;;;;;;;;;8.97;68.43;96950.80;108599;1276;125114;-84
2024/03/20 12:04:25;;;;;;;;;;;;;;;9.02;67.46;96944.74;108705;1280;22465;-84
2024/03/20 12:06:51;;;;;;;;;;;;;;;9.03;67.35;96943.13;108625;1281;23272;-84
2024/03/20 12:09:17;;;;;;;;;;;;;;;9.07;67.79;96945.78;108568;1281;123645;-84
2024/03/20 12:11:44;;;;;;;;;;;;;;;9.07;67.22;96945.81;108711;1280;22510;-84
2024/03/20 12:14:10;;;;;;;;;;;;;;;9.09;67.83;96940.54;108581;1275;123949;-84
2024/03/20 12:16:37;;;;;;;;;;;;;;;9.19;68.56;96945.14;108602;1278;22544;-84
2024/03/20 12:19:03;;;;;;;;;;;;;;;9.26;68.67;96943.16;108609;1279;22562;-84
2024/03/20 12:21:29;;;;;;;;;;;;;;;9.29;66.42;96946.14;108590;1279;123748;-84
2024/03/20 12:23:56;;;;;;;;;;;;;;;9.30;67.27;96940.66;108627;1281;22512;-85
2024/03/20 12:26:23;;;;;;;;;;;;;;;9.36;66.92;96941.80;108752;1279;124345;-84
2024/03/20 12:28:50;;;;;;;;;;;;;;;9.38;65.59;96944.80;110001;1281;22358;-84
2024/03/20 12:31:17;;;;;;;;;;;;;;;9.37;65.28;96940.40;109999;1273;22392;-83
2024/03/20 12:33:46;;;;;;;;;;;;;;;9.39;65.74;96941.43;109943;1280;123718;-83
2024/03/20 12:36:13;;;;;;;;;;;;;;;9.43;66.74;96935.61;110088;1280;23087;-83